sensor_id;sensor_type;location;lat;lon;timestamp;P1;durP1;ratioP1;P2;durP2;ratioP2
12910;SDS011;6523;49.758;6.120;2023-04-06T00:01:24;9.67;;;6.17;;
12910;SDS011;6523;49.758;6.120;2023-04-06T00:03:50;8.03;;;6.17;;
12910;SDS011;6523;49.758;6.120;2023-04-06T00:06:16;10.33;;;6.20;;
12910;SDS011;6523;49.758;6.120;2023-04-06T00:08:41;8.57;;;6.27;;
12910;SDS011;6523;49.758;6.120;2023-04-06T00:11:07;8.03;;;6.27;;
12910;SDS011;6523;49.758;6.120;2023-04-06T00:13:33;8.77;;;5.97;;
12910;SDS011;6523;49.758;6.120;2023-04-06T00:15:59;7.93;;;6.17;;
12910;SDS011;6523;49.758;6.120;2023-04-06T00:18:25;10.83;;;6.30;;
12910;SDS011;6523;49.758;6.120;2023-04-06T00:20:51;8.30;;;6.50;;
12910;SDS011;6523;49.758;6.120;2023-04-06T00:23:17;6.97;;;5.77;;
12910;SDS011;6523;49.758;6.120;2023-04-06T00:25:42;7.57;;;6.10;;
12910;SDS011;6523;49.758;6.120;2023-04-06T00:28:08;9.00;;;6.33;;
12910;SDS011;6523;49.758;6.120;2023-04-06T00:30:33;10.20;;;5.70;;
12910;SDS011;6523;49.758;6.120;2023-04-06T00:32:59;8.33;;;6.13;;
12910;SDS011;6523;49.758;6.120;2023-04-06T00:35:25;7.43;;;5.60;;
12910;SDS011;6523;49.758;6.120;2023-04-06T00:37:51;7.80;;;6.00;;
12910;SDS011;6523;49.758;6.120;2023-04-06T00:40:16;9.30;;;5.70;;
12910;SDS011;6523;49.758;6.120;2023-04-06T00:42:42;8.93;;;5.93;;
12910;SDS011;6523;49.758;6.120;2023-04-06T00:45:08;8.23;;;5.60;;
12910;SDS011;6523;49.758;6.120;2023-04-06T00:47:34;7.67;;;5.80;;
12910;SDS011;6523;49.758;6.120;2023-04-06T00:50:00;7.90;;;5.73;;
12910;SDS011;6523;49.758;6.120;2023-04-06T00:52:25;7.83;;;6.17;;
12910;SDS011;6523;49.758;6.120;2023-04-06T00:54:51;7.17;;;5.30;;
12910;SDS011;6523;49.758;6.120;2023-04-06T00:57:17;11.03;;;6.53;;
12910;SDS011;6523;49.758;6.120;2023-04-06T00:59:43;8.53;;;5.80;;
12910;SDS011;6523;49.758;6.120;2023-04-06T01:02:09;6.13;;;5.30;;
12910;SDS011;6523;49.758;6.120;2023-04-06T01:04:35;8.70;;;5.80;;
12910;SDS011;6523;49.758;6.120;2023-04-06T01:07:00;6.57;;;5.13;;
12910;SDS011;6523;49.758;6.120;2023-04-06T01:09:29;7.93;;;5.83;;
12910;SDS011;6523;49.758;6.120;2023-04-06T01:11:55;9.60;;;6.57;;
12910;SDS011;6523;49.758;6.120;2023-04-06T01:14:22;8.97;;;6.33;;
12910;SDS011;6523;49.758;6.120;2023-04-06T01:16:48;9.43;;;6.13;;
12910;SDS011;6523;49.758;6.120;2023-04-06T01:19:13;10.07;;;6.20;;
12910;SDS011;6523;49.758;6.120;2023-04-06T01:21:39;8.63;;;6.20;;
12910;SDS011;6523;49.758;6.120;2023-04-06T01:24:06;7.87;;;6.00;;
12910;SDS011;6523;49.758;6.120;2023-04-06T01:26:32;8.80;;;5.97;;
12910;SDS011;6523;49.758;6.120;2023-04-06T01:28:58;9.60;;;6.07;;
12910;SDS011;6523;49.758;6.120;2023-04-06T01:31:24;8.30;;;5.87;;
12910;SDS011;6523;49.758;6.120;2023-04-06T01:33:51;8.33;;;6.20;;
12910;SDS011;6523;49.758;6.120;2023-04-06T01:36:16;9.30;;;6.00;;
12910;SDS011;6523;49.758;6.120;2023-04-06T01:38:42;7.23;;;5.40;;
12910;SDS011;6523;49.758;6.120;2023-04-06T01:41:08;6.97;;;5.47;;
12910;SDS011;6523;49.758;6.120;2023-04-06T01:43:34;7.93;;;5.60;;
12910;SDS011;6523;49.758;6.120;2023-04-06T01:45:59;7.43;;;5.83;;
12910;SDS011;6523;49.758;6.120;2023-04-06T01:48:25;7.73;;;5.13;;
12910;SDS011;6523;49.758;6.120;2023-04-06T01:50:51;7.87;;;5.70;;
12910;SDS011;6523;49.758;6.120;2023-04-06T01:53:17;8.20;;;5.73;;
12910;SDS011;6523;49.758;6.120;2023-04-06T01:55:43;7.47;;;5.70;;
12910;SDS011;6523;49.758;6.120;2023-04-06T01:58:08;7.90;;;5.70;;
12910;SDS011;6523;49.758;6.120;2023-04-06T02:00:34;7.67;;;5.80;;
12910;SDS011;6523;49.758;6.120;2023-04-06T02:02:59;8.77;;;6.30;;
12910;SDS011;6523;49.758;6.120;2023-04-06T02:05:25;9.90;;;6.47;;
12910;SDS011;6523;49.758;6.120;2023-04-06T02:07:51;7.43;;;5.97;;
12910;SDS011;6523;49.758;6.120;2023-04-06T02:10:16;8.60;;;6.10;;
12910;SDS011;6523;49.758;6.120;2023-04-06T02:12:42;10.47;;;6.60;;
12910;SDS011;6523;49.758;6.120;2023-04-06T02:15:08;8.90;;;6.13;;
12910;SDS011;6523;49.758;6.120;2023-04-06T02:17:34;9.13;;;6.30;;
12910;SDS011;6523;49.758;6.120;2023-04-06T02:20:00;9.07;;;6.50;;
12910;SDS011;6523;49.758;6.120;2023-04-06T02:22:25;12.40;;;7.10;;
12910;SDS011;6523;49.758;6.120;2023-04-06T02:24:51;9.43;;;6.60;;
12910;SDS011;6523;49.758;6.120;2023-04-06T02:27:16;10.03;;;6.63;;
12910;SDS011;6523;49.758;6.120;2023-04-06T02:29:42;11.67;;;6.10;;
12910;SDS011;6523;49.758;6.120;2023-04-06T02:32:07;10.43;;;6.07;;
12910;SDS011;6523;49.758;6.120;2023-04-06T02:34:33;9.93;;;6.27;;
12910;SDS011;6523;49.758;6.120;2023-04-06T02:36:58;8.83;;;6.10;;
12910;SDS011;6523;49.758;6.120;2023-04-06T02:39:24;7.93;;;6.00;;
12910;SDS011;6523;49.758;6.120;2023-04-06T02:41:49;9.00;;;6.47;;
12910;SDS011;6523;49.758;6.120;2023-04-06T02:44:15;8.37;;;6.17;;
12910;SDS011;6523;49.758;6.120;2023-04-06T02:46:41;9.77;;;6.23;;
12910;SDS011;6523;49.758;6.120;2023-04-06T02:49:06;11.63;;;7.17;;
12910;SDS011;6523;49.758;6.120;2023-04-06T02:51:32;9.90;;;6.47;;
12910;SDS011;6523;49.758;6.120;2023-04-06T02:53:58;12.70;;;5.83;;
12910;SDS011;6523;49.758;6.120;2023-04-06T02:56:24;9.87;;;6.87;;
12910;SDS011;6523;49.758;6.120;2023-04-06T02:58:49;9.13;;;6.60;;
12910;SDS011;6523;49.758;6.120;2023-04-06T03:01:15;9.63;;;6.87;;
12910;SDS011;6523;49.758;6.120;2023-04-06T03:03:41;10.33;;;6.90;;
12910;SDS011;6523;49.758;6.120;2023-04-06T03:06:06;10.70;;;6.90;;
12910;SDS011;6523;49.758;6.120;2023-04-06T03:08:32;10.90;;;6.20;;
12910;SDS011;6523;49.758;6.120;2023-04-06T03:10:57;12.17;;;6.50;;
12910;SDS011;6523;49.758;6.120;2023-04-06T03:13:23;8.67;;;6.17;;
12910;SDS011;6523;49.758;6.120;2023-04-06T03:15:48;8.73;;;6.30;;
12910;SDS011;6523;49.758;6.120;2023-04-06T03:18:14;10.13;;;6.30;;
12910;SDS011;6523;49.758;6.120;2023-04-06T03:20:40;9.03;;;6.17;;
12910;SDS011;6523;49.758;6.120;2023-04-06T03:23:05;8.93;;;5.90;;
12910;SDS011;6523;49.758;6.120;2023-04-06T03:25:31;9.73;;;6.57;;
12910;SDS011;6523;49.758;6.120;2023-04-06T03:27:56;9.90;;;6.00;;
12910;SDS011;6523;49.758;6.120;2023-04-06T03:30:22;9.10;;;6.03;;
12910;SDS011;6523;49.758;6.120;2023-04-06T03:32:47;9.20;;;6.30;;
12910;SDS011;6523;49.758;6.120;2023-04-06T03:35:13;9.87;;;6.43;;
12910;SDS011;6523;49.758;6.120;2023-04-06T03:37:39;8.53;;;5.83;;
12910;SDS011;6523;49.758;6.120;2023-04-06T03:40:05;6.60;;;5.67;;
12910;SDS011;6523;49.758;6.120;2023-04-06T03:42:31;9.07;;;6.60;;
12910;SDS011;6523;49.758;6.120;2023-04-06T03:44:57;9.00;;;6.17;;
12910;SDS011;6523;49.758;6.120;2023-04-06T03:47:23;9.33;;;6.60;;
12910;SDS011;6523;49.758;6.120;2023-04-06T03:49:49;8.63;;;5.80;;
12910;SDS011;6523;49.758;6.120;2023-04-06T03:52:15;8.40;;;6.57;;
12910;SDS011;6523;49.758;6.120;2023-04-06T03:54:40;10.37;;;6.50;;
12910;SDS011;6523;49.758;6.120;2023-04-06T03:57:06;8.80;;;6.43;;
12910;SDS011;6523;49.758;6.120;2023-04-06T03:59:31;9.63;;;6.63;;
12910;SDS011;6523;49.758;6.120;2023-04-06T04:01:57;10.67;;;6.57;;
12910;SDS011;6523;49.758;6.120;2023-04-06T04:04:22;8.30;;;6.20;;
12910;SDS011;6523;49.758;6.120;2023-04-06T04:06:48;10.40;;;6.47;;
12910;SDS011;6523;49.758;6.120;2023-04-06T04:09:13;9.63;;;6.90;;
12910;SDS011;6523;49.758;6.120;2023-04-06T04:11:39;8.37;;;5.90;;
12910;SDS011;6523;49.758;6.120;2023-04-06T04:14:05;7.70;;;6.00;;
12910;SDS011;6523;49.758;6.120;2023-04-06T04:16:30;8.37;;;6.13;;
12910;SDS011;6523;49.758;6.120;2023-04-06T04:18:56;10.33;;;6.37;;
12910;SDS011;6523;49.758;6.120;2023-04-06T04:21:23;8.83;;;6.27;;
12910;SDS011;6523;49.758;6.120;2023-04-06T04:23:50;10.73;;;6.87;;
12910;SDS011;6523;49.758;6.120;2023-04-06T04:26:16;12.30;;;6.73;;
12910;SDS011;6523;49.758;6.120;2023-04-06T04:28:41;10.97;;;6.90;;
12910;SDS011;6523;49.758;6.120;2023-04-06T04:31:07;10.77;;;7.20;;
12910;SDS011;6523;49.758;6.120;2023-04-06T04:33:32;10.20;;;6.80;;
12910;SDS011;6523;49.758;6.120;2023-04-06T04:35:58;10.17;;;7.10;;
12910;SDS011;6523;49.758;6.120;2023-04-06T04:38:23;12.33;;;7.33;;
12910;SDS011;6523;49.758;6.120;2023-04-06T04:40:49;10.03;;;6.97;;
12910;SDS011;6523;49.758;6.120;2023-04-06T04:43:14;9.07;;;7.20;;
12910;SDS011;6523;49.758;6.120;2023-04-06T04:45:40;11.23;;;6.80;;
12910;SDS011;6523;49.758;6.120;2023-04-06T04:48:06;8.23;;;6.93;;
12910;SDS011;6523;49.758;6.120;2023-04-06T04:50:32;13.17;;;7.80;;
12910;SDS011;6523;49.758;6.120;2023-04-06T04:52:58;9.50;;;6.33;;
12910;SDS011;6523;49.758;6.120;2023-04-06T04:55:24;8.27;;;6.50;;
12910;SDS011;6523;49.758;6.120;2023-04-06T04:57:49;10.40;;;7.60;;
12910;SDS011;6523;49.758;6.120;2023-04-06T05:00:15;10.53;;;6.90;;
12910;SDS011;6523;49.758;6.120;2023-04-06T05:02:41;12.43;;;7.60;;
12910;SDS011;6523;49.758;6.120;2023-04-06T05:05:06;11.40;;;7.30;;
12910;SDS011;6523;49.758;6.120;2023-04-06T05:07:32;10.07;;;7.50;;
12910;SDS011;6523;49.758;6.120;2023-04-06T05:09:58;11.93;;;7.70;;
12910;SDS011;6523;49.758;6.120;2023-04-06T05:12:24;11.40;;;7.53;;
12910;SDS011;6523;49.758;6.120;2023-04-06T05:14:51;8.90;;;7.00;;
12910;SDS011;6523;49.758;6.120;2023-04-06T05:17:18;11.13;;;7.17;;
12910;SDS011;6523;49.758;6.120;2023-04-06T05:19:43;10.60;;;7.13;;
12910;SDS011;6523;49.758;6.120;2023-04-06T05:22:09;9.87;;;7.53;;
12910;SDS011;6523;49.758;6.120;2023-04-06T05:24:34;13.53;;;8.10;;
12910;SDS011;6523;49.758;6.120;2023-04-06T05:27:00;10.83;;;7.00;;
12910;SDS011;6523;49.758;6.120;2023-04-06T05:29:26;10.00;;;6.87;;
12910;SDS011;6523;49.758;6.120;2023-04-06T05:31:51;10.73;;;7.27;;
12910;SDS011;6523;49.758;6.120;2023-04-06T05:34:17;11.50;;;7.30;;
12910;SDS011;6523;49.758;6.120;2023-04-06T05:36:42;10.73;;;7.47;;
12910;SDS011;6523;49.758;6.120;2023-04-06T05:39:08;13.60;;;7.77;;
12910;SDS011;6523;49.758;6.120;2023-04-06T05:41:34;9.40;;;7.03;;
12910;SDS011;6523;49.758;6.120;2023-04-06T05:44:00;11.40;;;8.23;;
12910;SDS011;6523;49.758;6.120;2023-04-06T05:46:25;9.93;;;7.53;;
12910;SDS011;6523;49.758;6.120;2023-04-06T05:48:51;11.27;;;7.77;;
12910;SDS011;6523;49.758;6.120;2023-04-06T05:51:16;14.63;;;8.40;;
12910;SDS011;6523;49.758;6.120;2023-04-06T05:53:42;12.33;;;8.20;;
12910;SDS011;6523;49.758;6.120;2023-04-06T05:56:07;14.67;;;8.97;;
12910;SDS011;6523;49.758;6.120;2023-04-06T05:58:33;12.60;;;8.43;;
12910;SDS011;6523;49.758;6.120;2023-04-06T06:00:59;12.20;;;8.53;;
12910;SDS011;6523;49.758;6.120;2023-04-06T06:03:25;12.50;;;8.30;;
12910;SDS011;6523;49.758;6.120;2023-04-06T06:05:51;11.43;;;8.43;;
12910;SDS011;6523;49.758;6.120;2023-04-06T06:08:16;12.90;;;8.53;;
12910;SDS011;6523;49.758;6.120;2023-04-06T06:10:42;12.07;;;8.93;;
12910;SDS011;6523;49.758;6.120;2023-04-06T06:13:08;14.87;;;9.50;;
12910;SDS011;6523;49.758;6.120;2023-04-06T06:15:34;15.53;;;9.73;;
12910;SDS011;6523;49.758;6.120;2023-04-06T06:18:00;14.63;;;9.43;;
12910;SDS011;6523;49.758;6.120;2023-04-06T06:20:26;15.83;;;10.20;;
12910;SDS011;6523;49.758;6.120;2023-04-06T06:22:52;14.70;;;9.43;;
12910;SDS011;6523;49.758;6.120;2023-04-06T06:25:18;15.53;;;9.60;;
12910;SDS011;6523;49.758;6.120;2023-04-06T06:27:43;15.27;;;10.30;;
12910;SDS011;6523;49.758;6.120;2023-04-06T06:30:09;19.20;;;11.40;;
12910;SDS011;6523;49.758;6.120;2023-04-06T06:32:35;15.77;;;10.60;;
12910;SDS011;6523;49.758;6.120;2023-04-06T06:35:00;21.53;;;11.20;;
12910;SDS011;6523;49.758;6.120;2023-04-06T06:37:26;15.93;;;10.30;;
12910;SDS011;6523;49.758;6.120;2023-04-06T06:39:51;15.90;;;10.73;;
12910;SDS011;6523;49.758;6.120;2023-04-06T06:42:17;19.03;;;10.60;;
12910;SDS011;6523;49.758;6.120;2023-04-06T06:44:42;17.80;;;12.00;;
12910;SDS011;6523;49.758;6.120;2023-04-06T06:47:08;14.80;;;10.93;;
12910;SDS011;6523;49.758;6.120;2023-04-06T06:49:34;16.63;;;10.60;;
12910;SDS011;6523;49.758;6.120;2023-04-06T06:52:00;15.93;;;10.20;;
12910;SDS011;6523;49.758;6.120;2023-04-06T06:54:25;18.03;;;11.13;;
12910;SDS011;6523;49.758;6.120;2023-04-06T06:56:51;14.97;;;10.73;;
12910;SDS011;6523;49.758;6.120;2023-04-06T06:59:17;15.87;;;11.03;;
12910;SDS011;6523;49.758;6.120;2023-04-06T07:01:42;17.40;;;10.70;;
12910;SDS011;6523;49.758;6.120;2023-04-06T07:04:08;15.50;;;10.70;;
12910;SDS011;6523;49.758;6.120;2023-04-06T07:06:34;16.43;;;10.67;;
12910;SDS011;6523;49.758;6.120;2023-04-06T07:09:01;16.50;;;10.67;;
12910;SDS011;6523;49.758;6.120;2023-04-06T07:11:28;13.87;;;10.33;;
12910;SDS011;6523;49.758;6.120;2023-04-06T07:13:54;15.17;;;10.60;;
12910;SDS011;6523;49.758;6.120;2023-04-06T07:16:19;16.07;;;10.57;;
12910;SDS011;6523;49.758;6.120;2023-04-06T07:18:45;18.80;;;11.50;;
12910;SDS011;6523;49.758;6.120;2023-04-06T07:21:10;15.57;;;11.30;;
12910;SDS011;6523;49.758;6.120;2023-04-06T07:23:36;17.73;;;10.93;;
12910;SDS011;6523;49.758;6.120;2023-04-06T07:26:03;17.20;;;11.43;;
12910;SDS011;6523;49.758;6.120;2023-04-06T07:28:28;16.87;;;11.50;;
12910;SDS011;6523;49.758;6.120;2023-04-06T07:30:54;18.10;;;11.63;;
12910;SDS011;6523;49.758;6.120;2023-04-06T07:33:20;19.53;;;12.20;;
12910;SDS011;6523;49.758;6.120;2023-04-06T07:35:45;14.53;;;11.27;;
12910;SDS011;6523;49.758;6.120;2023-04-06T07:38:11;18.50;;;11.90;;
12910;SDS011;6523;49.758;6.120;2023-04-06T07:40:37;17.93;;;12.40;;
12910;SDS011;6523;49.758;6.120;2023-04-06T07:43:02;17.03;;;12.23;;
12910;SDS011;6523;49.758;6.120;2023-04-06T07:45:28;19.03;;;11.73;;
12910;SDS011;6523;49.758;6.120;2023-04-06T07:47:54;16.77;;;11.70;;
12910;SDS011;6523;49.758;6.120;2023-04-06T07:50:19;14.57;;;10.50;;
12910;SDS011;6523;49.758;6.120;2023-04-06T07:52:45;18.07;;;12.20;;
12910;SDS011;6523;49.758;6.120;2023-04-06T07:55:11;15.90;;;11.50;;
12910;SDS011;6523;49.758;6.120;2023-04-06T07:57:37;17.53;;;12.30;;
12910;SDS011;6523;49.758;6.120;2023-04-06T08:00:02;17.30;;;11.73;;
12910;SDS011;6523;49.758;6.120;2023-04-06T08:02:29;20.30;;;11.43;;
12910;SDS011;6523;49.758;6.120;2023-04-06T08:04:56;16.23;;;11.03;;
12910;SDS011;6523;49.758;6.120;2023-04-06T08:07:21;15.67;;;11.13;;
12910;SDS011;6523;49.758;6.120;2023-04-06T08:09:47;14.13;;;11.33;;
12910;SDS011;6523;49.758;6.120;2023-04-06T08:12:13;15.60;;;11.23;;
12910;SDS011;6523;49.758;6.120;2023-04-06T08:14:38;14.67;;;10.57;;
12910;SDS011;6523;49.758;6.120;2023-04-06T08:17:04;15.70;;;10.93;;
12910;SDS011;6523;49.758;6.120;2023-04-06T08:19:30;18.37;;;10.90;;
12910;SDS011;6523;49.758;6.120;2023-04-06T08:21:55;16.67;;;10.53;;
12910;SDS011;6523;49.758;6.120;2023-04-06T08:24:21;16.03;;;10.80;;
12910;SDS011;6523;49.758;6.120;2023-04-06T08:26:46;15.97;;;9.93;;
12910;SDS011;6523;49.758;6.120;2023-04-06T08:29:12;14.93;;;10.00;;
12910;SDS011;6523;49.758;6.120;2023-04-06T08:31:37;12.93;;;10.07;;
12910;SDS011;6523;49.758;6.120;2023-04-06T08:34:03;17.53;;;10.87;;
12910;SDS011;6523;49.758;6.120;2023-04-06T08:36:30;14.33;;;10.13;;
12910;SDS011;6523;49.758;6.120;2023-04-06T08:38:56;16.20;;;10.00;;
12910;SDS011;6523;49.758;6.120;2023-04-06T08:41:22;13.33;;;9.47;;
12910;SDS011;6523;49.758;6.120;2023-04-06T08:44:05;14.37;;;9.90;;
12910;SDS011;6523;49.758;6.120;2023-04-06T08:46:31;12.00;;;8.57;;
12910;SDS011;6523;49.758;6.120;2023-04-06T08:48:57;12.07;;;8.70;;
12910;SDS011;6523;49.758;6.120;2023-04-06T08:51:25;15.27;;;7.77;;
12910;SDS011;6523;49.758;6.120;2023-04-06T08:53:52;11.63;;;8.20;;
12910;SDS011;6523;49.758;6.120;2023-04-06T08:56:21;11.33;;;7.83;;
12910;SDS011;6523;49.758;6.120;2023-04-06T08:58:48;13.40;;;8.40;;
12910;SDS011;6523;49.758;6.120;2023-04-06T09:01:14;12.33;;;7.70;;
12910;SDS011;6523;49.758;6.120;2023-04-06T09:03:42;11.83;;;7.27;;
12910;SDS011;6523;49.758;6.120;2023-04-06T09:06:09;12.07;;;7.60;;
12910;SDS011;6523;49.758;6.120;2023-04-06T09:08:38;12.00;;;7.43;;
12910;SDS011;6523;49.758;6.120;2023-04-06T09:11:05;9.80;;;7.17;;
12910;SDS011;6523;49.758;6.120;2023-04-06T09:13:31;11.23;;;7.77;;
12910;SDS011;6523;49.758;6.120;2023-04-06T09:16:03;12.63;;;6.77;;
12910;SDS011;6523;49.758;6.120;2023-04-06T09:18:33;9.23;;;6.77;;
12910;SDS011;6523;49.758;6.120;2023-04-06T09:21:06;13.47;;;8.03;;
12910;SDS011;6523;49.758;6.120;2023-04-06T09:23:32;10.73;;;7.43;;
12910;SDS011;6523;49.758;6.120;2023-04-06T09:28:43;13.73;;;7.50;;
12910;SDS011;6523;49.758;6.120;2023-04-06T09:31:21;11.63;;;7.57;;
12910;SDS011;6523;49.758;6.120;2023-04-06T09:33:47;12.70;;;7.93;;
12910;SDS011;6523;49.758;6.120;2023-04-06T09:36:13;11.20;;;7.10;;
12910;SDS011;6523;49.758;6.120;2023-04-06T09:38:57;13.00;;;7.43;;
12910;SDS011;6523;49.758;6.120;2023-04-06T09:41:24;10.77;;;6.93;;
12910;SDS011;6523;49.758;6.120;2023-04-06T09:44:12;12.53;;;7.33;;
12910;SDS011;6523;49.758;6.120;2023-04-06T09:46:39;10.10;;;6.67;;
12910;SDS011;6523;49.758;6.120;2023-04-06T09:49:06;12.63;;;7.30;;
12910;SDS011;6523;49.758;6.120;2023-04-06T09:51:36;11.53;;;7.27;;
12910;SDS011;6523;49.758;6.120;2023-04-06T09:54:03;10.23;;;7.07;;
12910;SDS011;6523;49.758;6.120;2023-04-06T09:59:13;11.17;;;7.33;;
12910;SDS011;6523;49.758;6.120;2023-04-06T10:01:45;10.23;;;7.07;;
12910;SDS011;6523;49.758;6.120;2023-04-06T10:04:18;13.20;;;7.63;;
12910;SDS011;6523;49.758;6.120;2023-04-06T10:06:55;9.80;;;7.77;;
12910;SDS011;6523;49.758;6.120;2023-04-06T10:09:24;9.33;;;7.40;;
12910;SDS011;6523;49.758;6.120;2023-04-06T10:11:53;11.37;;;7.27;;
12910;SDS011;6523;49.758;6.120;2023-04-06T10:14:20;9.97;;;7.27;;
12910;SDS011;6523;49.758;6.120;2023-04-06T10:16:46;12.17;;;7.43;;
12910;SDS011;6523;49.758;6.120;2023-04-06T10:22:16;9.07;;;6.70;;
12910;SDS011;6523;49.758;6.120;2023-04-06T10:24:49;13.47;;;8.53;;
12910;SDS011;6523;49.758;6.120;2023-04-06T10:27:15;10.80;;;7.37;;
12910;SDS011;6523;49.758;6.120;2023-04-06T10:29:47;11.60;;;7.57;;
12910;SDS011;6523;49.758;6.120;2023-04-06T10:32:14;10.53;;;8.07;;
12910;SDS011;6523;49.758;6.120;2023-04-06T10:34:40;13.17;;;7.40;;
12910;SDS011;6523;49.758;6.120;2023-04-06T10:37:15;11.23;;;7.23;;
12910;SDS011;6523;49.758;6.120;2023-04-06T10:39:52;13.30;;;7.63;;
12910;SDS011;6523;49.758;6.120;2023-04-06T10:42:36;11.33;;;7.60;;
12910;SDS011;6523;49.758;6.120;2023-04-06T10:45:04;13.30;;;7.63;;
12910;SDS011;6523;49.758;6.120;2023-04-06T10:47:38;11.77;;;6.60;;
12910;SDS011;6523;49.758;6.120;2023-04-06T10:50:07;10.07;;;6.90;;
12910;SDS011;6523;49.758;6.120;2023-04-06T10:52:33;10.57;;;7.07;;
12910;SDS011;6523;49.758;6.120;2023-04-06T10:54:58;11.10;;;6.17;;
12910;SDS011;6523;49.758;6.120;2023-04-06T10:57:28;10.67;;;6.90;;
12910;SDS011;6523;49.758;6.120;2023-04-06T10:59:55;9.40;;;6.00;;
12910;SDS011;6523;49.758;6.120;2023-04-06T11:02:21;10.13;;;6.33;;
12910;SDS011;6523;49.758;6.120;2023-04-06T11:04:56;8.07;;;6.03;;
12910;SDS011;6523;49.758;6.120;2023-04-06T11:07:25;7.43;;;5.70;;
12910;SDS011;6523;49.758;6.120;2023-04-06T11:09:51;8.20;;;5.30;;
12910;SDS011;6523;49.758;6.120;2023-04-06T11:12:23;8.73;;;5.57;;
12910;SDS011;6523;49.758;6.120;2023-04-06T11:17:27;8.47;;;5.80;;
12910;SDS011;6523;49.758;6.120;2023-04-06T11:19:54;9.00;;;6.00;;
12910;SDS011;6523;49.758;6.120;2023-04-06T11:22:20;10.50;;;6.20;;
12910;SDS011;6523;49.758;6.120;2023-04-06T11:24:45;8.67;;;5.70;;
12910;SDS011;6523;49.758;6.120;2023-04-06T11:27:11;8.70;;;5.63;;
12910;SDS011;6523;49.758;6.120;2023-04-06T11:29:40;9.60;;;5.40;;
12910;SDS011;6523;49.758;6.120;2023-04-06T11:32:06;7.83;;;5.87;;
12910;SDS011;6523;49.758;6.120;2023-04-06T11:34:35;8.00;;;5.00;;
12910;SDS011;6523;49.758;6.120;2023-04-06T11:37:12;7.80;;;5.63;;
12910;SDS011;6523;49.758;6.120;2023-04-06T11:39:48;8.43;;;6.23;;
12910;SDS011;6523;49.758;6.120;2023-04-06T11:42:20;7.27;;;5.43;;
12910;SDS011;6523;49.758;6.120;2023-04-06T11:44:53;8.77;;;6.87;;
12910;SDS011;6523;49.758;6.120;2023-04-06T11:47:30;6.80;;;5.43;;
12910;SDS011;6523;49.758;6.120;2023-04-06T11:50:09;7.73;;;5.03;;
12910;SDS011;6523;49.758;6.120;2023-04-06T11:52:35;7.87;;;4.90;;
12910;SDS011;6523;49.758;6.120;2023-04-06T11:57:42;6.53;;;5.20;;
12910;SDS011;6523;49.758;6.120;2023-04-06T12:00:08;6.97;;;4.63;;
12910;SDS011;6523;49.758;6.120;2023-04-06T12:02:35;7.00;;;4.80;;
12910;SDS011;6523;49.758;6.120;2023-04-06T12:05:02;7.60;;;5.03;;
12910;SDS011;6523;49.758;6.120;2023-04-06T12:07:28;7.43;;;5.43;;
12910;SDS011;6523;49.758;6.120;2023-04-06T12:09:55;5.90;;;4.47;;
12910;SDS011;6523;49.758;6.120;2023-04-06T12:12:21;7.03;;;5.17;;
12910;SDS011;6523;49.758;6.120;2023-04-06T12:14:46;5.70;;;4.70;;
12910;SDS011;6523;49.758;6.120;2023-04-06T12:17:12;7.67;;;5.47;;
12910;SDS011;6523;49.758;6.120;2023-04-06T12:19:37;5.53;;;4.90;;
12910;SDS011;6523;49.758;6.120;2023-04-06T12:22:03;6.83;;;5.60;;
12910;SDS011;6523;49.758;6.120;2023-04-06T12:24:29;7.13;;;5.00;;
12910;SDS011;6523;49.758;6.120;2023-04-06T12:26:54;7.20;;;5.30;;
12910;SDS011;6523;49.758;6.120;2023-04-06T12:29:20;6.13;;;5.00;;
12910;SDS011;6523;49.758;6.120;2023-04-06T12:31:45;5.23;;;4.23;;
12910;SDS011;6523;49.758;6.120;2023-04-06T12:34:11;5.10;;;4.50;;
12910;SDS011;6523;49.758;6.120;2023-04-06T12:36:37;6.87;;;4.53;;
12910;SDS011;6523;49.758;6.120;2023-04-06T12:39:03;6.63;;;4.73;;
12910;SDS011;6523;49.758;6.120;2023-04-06T12:41:29;5.80;;;4.10;;
12910;SDS011;6523;49.758;6.120;2023-04-06T12:43:55;4.90;;;3.83;;
12910;SDS011;6523;49.758;6.120;2023-04-06T12:46:20;4.30;;;3.60;;
12910;SDS011;6523;49.758;6.120;2023-04-06T12:48:46;5.47;;;4.00;;
12910;SDS011;6523;49.758;6.120;2023-04-06T12:51:12;5.83;;;3.97;;
12910;SDS011;6523;49.758;6.120;2023-04-06T12:53:38;6.03;;;3.93;;
12910;SDS011;6523;49.758;6.120;2023-04-06T12:56:10;4.43;;;3.97;;
12910;SDS011;6523;49.758;6.120;2023-04-06T12:58:50;3.87;;;3.50;;
12910;SDS011;6523;49.758;6.120;2023-04-06T13:01:16;4.33;;;3.77;;
12910;SDS011;6523;49.758;6.120;2023-04-06T13:03:42;5.53;;;4.10;;
12910;SDS011;6523;49.758;6.120;2023-04-06T13:06:09;5.77;;;4.53;;
12910;SDS011;6523;49.758;6.120;2023-04-06T13:08:35;4.13;;;3.43;;
12910;SDS011;6523;49.758;6.120;2023-04-06T13:11:05;5.30;;;3.97;;
12910;SDS011;6523;49.758;6.120;2023-04-06T13:13:34;4.60;;;3.63;;
12910;SDS011;6523;49.758;6.120;2023-04-06T13:16:02;4.47;;;3.77;;
12910;SDS011;6523;49.758;6.120;2023-04-06T13:18:34;4.17;;;3.77;;
12910;SDS011;6523;49.758;6.120;2023-04-06T13:21:01;4.67;;;3.83;;
12910;SDS011;6523;49.758;6.120;2023-04-06T13:23:27;4.73;;;3.73;;
12910;SDS011;6523;49.758;6.120;2023-04-06T13:28:28;4.73;;;3.90;;
12910;SDS011;6523;49.758;6.120;2023-04-06T13:30:55;5.03;;;4.00;;
12910;SDS011;6523;49.758;6.120;2023-04-06T13:33:21;4.30;;;3.87;;
12910;SDS011;6523;49.758;6.120;2023-04-06T13:35:46;8.43;;;4.50;;
12910;SDS011;6523;49.758;6.120;2023-04-06T13:38:13;5.97;;;3.63;;
12910;SDS011;6523;49.758;6.120;2023-04-06T13:40:39;5.27;;;4.20;;
12910;SDS011;6523;49.758;6.120;2023-04-06T13:43:05;4.13;;;3.73;;
12910;SDS011;6523;49.758;6.120;2023-04-06T13:45:31;5.90;;;3.77;;
12910;SDS011;6523;49.758;6.120;2023-04-06T13:47:56;5.00;;;3.93;;
12910;SDS011;6523;49.758;6.120;2023-04-06T13:50:22;4.90;;;3.77;;
12910;SDS011;6523;49.758;6.120;2023-04-06T13:52:47;4.03;;;3.63;;
12910;SDS011;6523;49.758;6.120;2023-04-06T13:55:14;4.67;;;3.50;;
12910;SDS011;6523;49.758;6.120;2023-04-06T13:57:40;4.10;;;3.60;;
12910;SDS011;6523;49.758;6.120;2023-04-06T14:00:06;4.57;;;3.77;;
12910;SDS011;6523;49.758;6.120;2023-04-06T14:02:33;4.53;;;3.13;;
12910;SDS011;6523;49.758;6.120;2023-04-06T14:04:59;5.50;;;3.33;;
12910;SDS011;6523;49.758;6.120;2023-04-06T14:07:25;5.17;;;3.73;;
12910;SDS011;6523;49.758;6.120;2023-04-06T14:09:51;8.93;;;3.93;;
12910;SDS011;6523;49.758;6.120;2023-04-06T14:12:16;4.47;;;3.90;;
12910;SDS011;6523;49.758;6.120;2023-04-06T14:14:42;4.47;;;3.53;;
12910;SDS011;6523;49.758;6.120;2023-04-06T14:17:07;5.10;;;4.17;;
12910;SDS011;6523;49.758;6.120;2023-04-06T14:19:33;5.57;;;3.70;;
12910;SDS011;6523;49.758;6.120;2023-04-06T14:21:59;4.47;;;4.00;;
12910;SDS011;6523;49.758;6.120;2023-04-06T14:24:25;5.03;;;4.40;;
12910;SDS011;6523;49.758;6.120;2023-04-06T14:26:51;5.90;;;4.40;;
12910;SDS011;6523;49.758;6.120;2023-04-06T14:29:16;5.10;;;4.37;;
12910;SDS011;6523;49.758;6.120;2023-04-06T14:31:42;6.40;;;4.37;;
12910;SDS011;6523;49.758;6.120;2023-04-06T14:34:09;4.90;;;3.83;;
12910;SDS011;6523;49.758;6.120;2023-04-06T14:36:35;4.67;;;3.93;;
12910;SDS011;6523;49.758;6.120;2023-04-06T14:39:05;5.53;;;4.10;;
12910;SDS011;6523;49.758;6.120;2023-04-06T14:41:31;6.17;;;4.67;;
12910;SDS011;6523;49.758;6.120;2023-04-06T14:43:58;6.87;;;4.33;;
12910;SDS011;6523;49.758;6.120;2023-04-06T14:46:24;7.20;;;4.83;;
12910;SDS011;6523;49.758;6.120;2023-04-06T14:48:50;6.80;;;5.00;;
12910;SDS011;6523;49.758;6.120;2023-04-06T14:51:16;5.67;;;4.93;;
12910;SDS011;6523;49.758;6.120;2023-04-06T14:53:42;9.07;;;5.37;;
12910;SDS011;6523;49.758;6.120;2023-04-06T14:56:08;7.10;;;4.90;;
12910;SDS011;6523;49.758;6.120;2023-04-06T14:58:33;6.83;;;4.90;;
12910;SDS011;6523;49.758;6.120;2023-04-06T15:00:59;6.73;;;5.30;;
12910;SDS011;6523;49.758;6.120;2023-04-06T15:03:26;8.40;;;5.10;;
12910;SDS011;6523;49.758;6.120;2023-04-06T15:05:53;8.63;;;5.20;;